Time;durP1;ratioP1;P1;durP2;ratioP2;P2;SDS_P1;SDS_P2;PMS_P1;PMS_P2;Temp;Humidity;BMP_temperature;BMP_pressure;BME280_temperature;BME280_humidity;BME280_pressure;Samples;Min_cycle;Max_cycle;Signal;HPM_P1;HPM_P2
2022/05/06 00:01:29;;;;;;;29.05;16.95;;;;;;;6.50;100.00;102284.63;5024241;28;20104;-78
2022/05/06 00:03:55;;;;;;;30.15;17.05;;;;;;;6.54;100.00;102283.53;5007196;28;20037;-77
2022/05/06 00:06:20;;;;;;;27.60;16.92;;;;;;;6.47;100.00;102284.78;5020689;28;20652;-77
2022/05/06 00:08:46;;;;;;;29.95;16.42;;;;;;;6.42;100.00;102279.84;5024033;28;20025;-76
2022/05/06 00:11:12;;;;;;;29.10;16.80;;;;;;;6.50;100.00;102288.97;5014981;28;20029;-77
2022/05/06 00:13:38;;;;;;;28.70;16.38;;;;;;;6.49;100.00;102277.72;5007279;28;20052;-77
2022/05/06 00:16:04;;;;;;;30.55;16.85;;;;;;;6.52;100.00;102269.75;5005793;28;20530;-75
2022/05/06 00:18:31;;;;;;;32.35;19.25;;;;;;;6.55;100.00;102284.38;4999027;28;20133;-75
2022/05/06 00:20:57;;;;;;;32.60;20.67;;;;;;;6.66;100.00;102284.63;5040659;28;20037;-76
2022/05/06 00:23:24;;;;;;;41.85;22.38;;;;;;;6.58;100.00;102282.44;5024651;28;20029;-76
2022/05/06 00:25:50;;;;;;;34.13;20.30;;;;;;;6.49;100.00;102289.94;5005564;28;20507;-75
2022/05/06 00:28:16;;;;;;;36.40;19.90;;;;;;;6.46;100.00;102287.47;5011456;28;20175;-76
2022/05/06 00:30:42;;;;;;;34.38;19.75;;;;;;;6.38;100.00;102283.50;5023777;28;20052;-75
2022/05/06 00:33:09;;;;;;;29.77;19.77;;;;;;;6.37;100.00;102281.00;4992976;28;20037;-77
2022/05/06 00:35:41;;;;;;;37.75;21.15;;;;;;;6.43;100.00;102286.72;5021388;28;20037;-75
2022/05/06 00:38:08;;;;;;;36.75;19.85;;;;;;;6.38;100.00;102280.91;5022997;28;20048;-78
2022/05/06 00:40:34;;;;;;;40.08;19.77;;;;;;;6.29;100.00;102273.59;5022313;28;20506;-77
2022/05/06 00:43:00;;;;;;;31.58;19.90;;;;;;;6.36;100.00;102289.72;4987889;28;20037;-77
2022/05/06 00:45:31;;;;;;;32.95;18.70;;;;;;;6.36;100.00;102285.34;5004759;28;20026;-76
2022/05/06 00:47:57;;;;;;;38.13;21.23;;;;;;;6.38;100.00;102285.28;5007564;28;20454;-77
2022/05/06 00:50:22;;;;;;;35.25;19.27;;;;;;;6.29;100.00;102283.16;5026472;28;20048;-77
2022/05/06 00:52:48;;;;;;;31.67;18.40;;;;;;;6.25;100.00;102282.47;5017344;28;20041;-76
2022/05/06 00:55:14;;;;;;;28.00;18.60;;;;;;;6.22;100.00;102282.66;5027289;28;20088;-76
2022/05/06 00:57:39;;;;;;;26.70;18.27;;;;;;;6.27;100.00;102283.22;5005784;28;20142;-75
2022/05/06 01:00:20;;;;;;;29.20;17.80;;;;;;;6.30;100.00;102274.44;5012072;28;20035;-76
2022/05/06 01:02:47;;;;;;;27.42;17.65;;;;;;;6.27;100.00;102282.41;5025186;28;20479;-76
2022/05/06 01:05:14;;;;;;;27.20;16.95;;;;;;;6.24;100.00;102284.25;5025027;28;20102;-78
2022/05/06 01:07:41;;;;;;;25.83;17.80;;;;;;;6.13;100.00;102277.91;5013120;28;20045;-77
2022/05/06 01:10:07;;;;;;;36.55;19.95;;;;;;;6.08;100.00;102285.13;5000367;28;20041;-78
2022/05/06 01:12:33;;;;;;;31.80;20.05;;;;;;;6.08;100.00;102291.16;5029708;28;20495;-77
2022/05/06 01:15:22;;;;;;;35.45;20.67;;;;;;;6.06;100.00;102293.00;5021011;28;20033;-78
2022/05/06 01:17:52;;;;;;;35.30;19.73;;;;;;;6.01;100.00;102298.47;5037889;28;20049;-76
2022/05/06 01:20:20;;;;;;;39.28;20.75;;;;;;;6.03;100.00;102298.41;5008703;28;20041;-78
2022/05/06 01:22:50;;;;;;;37.88;20.75;;;;;;;5.93;100.00;102299.75;4993652;28;20050;-78
2022/05/06 01:25:17;;;;;;;35.75;19.67;;;;;;;5.91;100.00;102299.81;5028397;28;20041;-77
2022/05/06 01:27:50;;;;;;;31.55;19.20;;;;;;;5.98;100.00;102293.41;5028168;28;20467;-78
2022/05/06 01:30:32;;;;;;;33.13;20.08;;;;;;;5.84;100.00;102301.91;5010671;28;20483;-78
2022/05/06 01:32:59;;;;;;;27.27;17.88;;;;;;;5.84;100.00;102304.50;5023456;28;20523;-77
2022/05/06 01:35:27;;;;;;;34.40;19.17;;;;;;;5.93;100.00;102310.16;5026723;28;20052;-77
2022/05/06 01:38:00;;;;;;;34.25;19.20;;;;;;;5.84;100.00;102304.50;5004152;28;20384;-76
2022/05/06 01:40:27;;;;;;;33.38;19.30;;;;;;;5.80;100.00;102302.13;5009914;28;20052;-76
2022/05/06 01:42:58;;;;;;;31.95;19.60;;;;;;;5.81;100.00;102315.06;4991083;28;20368;-77
2022/05/06 01:45:29;;;;;;;30.70;18.98;;;;;;;5.83;100.00;102312.38;5016933;28;20038;-77
2022/05/06 01:47:58;;;;;;;28.30;18.77;;;;;;;5.80;100.00;102317.75;5031619;28;20042;-77
2022/05/06 01:50:27;;;;;;;31.50;18.88;;;;;;;5.71;100.00;102303.44;4995364;28;20040;-76
2022/05/06 01:52:55;;;;;;;28.65;18.30;;;;;;;5.73;100.00;102317.22;5013849;28;20069;-76
2022/05/06 01:55:22;;;;;;;29.48;18.60;;;;;;;5.66;100.00;102310.63;5015510;28;20037;-77
2022/05/06 01:57:59;;;;;;;28.38;17.70;;;;;;;5.64;100.00;102323.72;5008779;28;20038;-77
2022/05/06 02:00:27;;;;;;;27.50;18.13;;;;;;;5.66;100.00;102318.44;5021671;28;20368;-78
2022/05/06 02:02:55;;;;;;;28.02;17.75;;;;;;;5.70;100.00;102314.75;5011761;28;20491;-77
2022/05/06 02:05:28;;;;;;;28.88;18.42;;;;;;;5.65;100.00;102316.72;5002419;28;20145;-75
2022/05/06 02:07:55;;;;;;;30.65;17.63;;;;;;;5.67;100.00;102317.53;5009914;28;20042;-76
2022/05/06 02:10:23;;;;;;;25.17;17.42;;;;;;;5.65;100.00;102309.78;4992848;28;20039;-78
2022/05/06 02:12:55;;;;;;;27.80;17.55;;;;;;;5.55;100.00;102313.75;5010483;28;20025;-77
2022/05/06 02:15:53;;;;;;;26.80;16.52;;;;;;;5.52;100.00;102311.31;4990888;28;20506;-76
2022/05/06 02:18:19;;;;;;;25.02;17.73;;;;;;;5.47;100.00;102311.53;5027860;28;20131;-78
2022/05/06 02:20:56;;;;;;;28.30;17.60;;;;;;;5.44;100.00;102314.28;5008205;28;20115;-77
2022/05/06 02:23:33;;;;;;;26.63;16.75;;;;;;;5.38;100.00;102300.72;5015098;28;20037;-76
2022/05/06 02:26:15;;;;;;;29.83;16.77;;;;;;;5.46;100.00;102309.00;5016277;28;20037;-77
2022/05/06 02:28:49;;;;;;;27.67;16.70;;;;;;;5.43;100.00;102303.94;5011900;28;20033;-77
2022/05/06 02:34:00;;;;;;;30.42;18.25;;;;;;;5.41;100.00;102311.84;5024359;28;20426;-78
2022/05/06 02:36:30;;;;;;;36.22;21.58;;;;;;;5.41;100.00;102318.81;5028237;28;20037;-77
2022/05/06 02:38:55;;;;;;;33.60;20.02;;;;;;;5.36;100.00;102311.19;5032074;28;20490;-77
2022/05/06 02:41:21;;;;;;;31.70;19.17;;;;;;;5.36;100.00;102307.78;4993835;28;20923;-76
2022/05/06 02:43:52;;;;;;;28.88;19.60;;;;;;;5.41;100.00;102316.19;5011256;28;20037;-77
2022/05/06 02:46:19;;;;;;;32.95;19.70;;;;;;;5.39;100.00;102312.84;5026657;28;20034;-75
2022/05/06 02:48:45;;;;;;;32.30;19.45;;;;;;;5.38;100.00;102306.75;5008322;28;20040;-76
2022/05/06 02:51:13;;;;;;;31.80;19.77;;;;;;;5.44;100.00;102303.03;5026961;28;20422;-75
2022/05/06 02:53:41;;;;;;;36.47;20.30;;;;;;;5.48;100.00;102307.16;5027737;28;20037;-77
2022/05/06 02:56:07;;;;;;;34.78;19.35;;;;;;;5.43;100.00;102302.19;5009334;28;20060;-78
2022/05/06 02:58:46;;;;;;;29.38;18.48;;;;;;;5.50;100.00;102304.47;5023706;28;20041;-77
2022/05/06 03:01:12;;;;;;;28.67;18.10;;;;;;;5.49;100.00;102308.84;5019938;28;20124;-78
2022/05/06 03:03:39;;;;;;;29.48;18.38;;;;;;;5.55;100.00;102307.72;5019195;28;20487;-77
2022/05/06 03:06:13;;;;;;;27.77;18.02;;;;;;;5.53;100.00;102307.78;5009194;28;20033;-75
2022/05/06 03:08:39;;;;;;;27.42;17.70;;;;;;;5.51;100.00;102304.41;5023875;28;20048;-78
2022/05/06 03:11:05;;;;;;;28.50;17.50;;;;;;;5.48;100.00;102301.94;5022755;28;20029;-77
2022/05/06 03:13:36;;;;;;;30.60;17.80;;;;;;;5.49;100.00;102308.03;5020197;28;20517;-77
2022/05/06 03:16:07;;;;;;;29.02;16.33;;;;;;;5.47;100.00;102305.50;5002773;28;20029;-78
2022/05/06 03:18:33;;;;;;;26.00;16.70;;;;;;;5.43;100.00;102302.19;5023656;28;20033;-76
2022/05/06 03:20:58;;;;;;;25.77;15.88;;;;;;;5.47;100.00;102297.69;5022793;28;20037;-76
2022/05/06 03:23:24;;;;;;;24.50;16.65;;;;;;;5.38;100.00;102300.72;5009197;28;20049;-76
2022/05/06 03:25:50;;;;;;;28.83;17.77;;;;;;;5.34;100.00;102294.81;5009511;28;20700;-77
2022/05/06 03:28:16;;;;;;;25.67;16.77;;;;;;;5.31;100.00;102300.16;4986351;28;20502;-75
2022/05/06 03:30:47;;;;;;;31.75;17.95;;;;;;;5.29;100.00;102299.41;5014077;28;20482;-78
2022/05/06 03:33:30;;;;;;;24.58;16.15;;;;;;;5.25;100.00;102305.66;5024503;28;20037;-78
2022/05/06 03:35:59;;;;;;;32.95;17.88;;;;;;;5.22;100.00;102300.63;5020291;28;20033;-78
2022/05/06 03:38:27;;;;;;;27.52;16.60;;;;;;;5.24;100.00;102304.84;5001952;28;20547;-78
2022/05/06 03:40:56;;;;;;;29.23;17.42;;;;;;;5.23;100.00;102308.34;5001089;28;21844;-77
2022/05/06 03:43:24;;;;;;;28.38;17.15;;;;;;;5.23;100.00;102310.09;4994177;28;20483;-76
2022/05/06 03:45:51;;;;;;;26.08;16.45;;;;;;;5.21;100.00;102311.94;5008463;28;20033;-76
2022/05/06 03:48:24;;;;;;;26.38;15.48;;;;;;;5.21;100.00;102319.75;5009405;28;20029;-77
2022/05/06 03:53:40;;;;;;;23.85;15.77;;;;;;;5.20;100.00;102310.28;4997726;28;20080;-76
2022/05/06 03:56:06;;;;;;;27.10;16.88;;;;;;;5.24;100.00;102310.03;5006585;28;20045;-76
2022/05/06 03:58:38;;;;;;;23.48;14.57;;;;;;;5.27;100.00;102314.25;4991864;28;20037;-76
2022/05/06 04:01:10;;;;;;;20.05;13.75;;;;;;;5.26;100.00;102308.22;5019617;28;20065;-76
2022/05/06 04:03:40;;;;;;;22.13;15.07;;;;;;;5.33;100.00;102313.97;5007465;28;20037;-77
2022/05/06 04:06:06;;;;;;;23.30;14.45;;;;;;;5.32;100.00;102311.44;5025454;28;20033;-75
2022/05/06 04:08:33;;;;;;;20.73;14.38;;;;;;;5.34;100.00;102318.25;5006660;28;20546;-77
2022/05/06 04:11:00;;;;;;;22.98;15.10;;;;;;;5.34;100.00;102327.81;5005518;28;20038;-78
2022/05/06 04:13:26;;;;;;;27.63;16.23;;;;;;;5.29;100.00;102322.81;4994608;28;20049;-80
2022/05/06 04:15:53;;;;;;;25.70;15.48;;;;;;;5.33;100.00;102324.38;4985794;28;20412;-79
2022/05/06 04:18:19;;;;;;;23.85;14.73;;;;;;;5.41;100.00;102330.03;5024031;28;20467;-77
2022/05/06 04:23:34;;;;;;;22.80;15.50;;;;;;;5.47;100.00;102336.72;5018035;28;20030;-76
2022/05/06 04:26:11;;;;;;;24.88;16.05;;;;;;;5.53;100.00;102333.81;5008647;28;20029;-76
2022/05/06 04:28:40;;;;;;;;;;;;;;;5.56;100.00;102336.28;5000762;28;20045;-76
2022/05/06 04:31:07;;;;;;;24.83;16.42;;;;;;;5.54;100.00;102343.31;5034331;28;19917;-75
2022/05/06 04:33:40;;;;;;;31.05;17.63;;;;;;;5.52;100.00;102341.69;5006255;28;20037;-77
2022/05/06 04:36:09;;;;;;;26.92;17.52;;;;;;;5.43;100.00;102322.16;5010786;28;20087;-78
2022/05/06 04:38:37;;;;;;;25.90;17.75;;;;;;;5.50;100.00;102339.19;5009097;28;20029;-77
2022/05/06 04:41:04;;;;;;;28.20;17.73;;;;;;;5.52;100.00;102345.16;5026794;28;20048;-75
2022/05/06 04:43:33;;;;;;;27.67;17.55;;;;;;;5.55;100.00;102339.78;5024398;28;20034;-76
2022/05/06 04:45:59;;;;;;;27.50;17.02;;;;;;;5.63;100.00;102342.00;4992720;28;20044;-75
2022/05/06 04:48:29;;;;;;;33.30;19.15;;;;;;;5.69;100.00;102351.28;4992609;28;20037;-77
2022/05/06 04:50:57;;;;;;;29.73;18.02;;;;;;;5.72;100.00;102345.94;5007676;28;20116;-78
2022/05/06 04:53:23;;;;;;;29.38;17.35;;;;;;;5.84;100.00;102353.16;5021189;28;20025;-77
2022/05/06 04:55:51;;;;;;;28.02;17.25;;;;;;;5.94;100.00;102346.53;5006454;28;20038;-75
2022/05/06 04:58:24;;;;;;;28.15;17.50;;;;;;;6.13;100.00;102349.09;5002649;28;20044;-77
2022/05/06 05:00:50;;;;;;;28.00;17.33;;;;;;;6.26;100.00;102343.25;4995333;28;20036;-76
2022/05/06 05:03:19;;;;;;;34.40;20.30;;;;;;;6.51;100.00;102348.88;5019169;28;20108;-78
2022/05/06 05:05:45;;;;;;;38.60;22.55;;;;;;;6.69;100.00;102356.66;5018817;28;20190;-78
2022/05/06 05:08:11;;;;;;;37.17;21.85;;;;;;;6.83;100.00;102354.13;5020939;28;20527;-77
2022/05/06 05:10:43;;;;;;;39.13;22.58;;;;;;;6.96;100.00;102359.53;5011863;28;20038;-78
2022/05/06 05:13:09;;;;;;;35.65;21.83;;;;;;;7.07;100.00;102357.19;5008308;28;20403;-77
2022/05/06 05:15:35;;;;;;;37.35;23.08;;;;;;;7.13;100.00;102362.06;5009413;28;20049;-77
2022/05/06 05:18:02;;;;;;;39.40;22.65;;;;;;;7.24;100.00;102369.31;5008704;28;20099;-76
2022/05/06 05:20:28;;;;;;;35.90;22.15;;;;;;;7.37;100.00;102367.69;5017131;28;20030;-76
2022/05/06 05:22:55;;;;;;;37.15;22.77;;;;;;;7.43;100.00;102371.72;5008672;28;20494;-76
2022/05/06 05:25:22;;;;;;;38.90;23.33;;;;;;;7.53;100.00;102359.00;5027266;28;20155;-77
2022/05/06 05:27:48;;;;;;;44.58;23.70;;;;;;;7.63;100.00;102354.94;5024314;28;21698;-77
2022/05/06 05:30:23;;;;;;;49.13;25.70;;;;;;;7.82;100.00;102362.56;5025263;28;20048;-78
2022/05/06 05:32:49;;;;;;;50.92;26.65;;;;;;;7.92;100.00;102368.91;5016341;28;20096;-77
2022/05/06 05:35:15;;;;;;;37.35;23.60;;;;;;;8.01;100.00;102367.56;5018702;28;20116;-79
2022/05/06 05:37:50;;;;;;;45.85;25.10;;;;;;;8.19;100.00;102365.59;4993119;28;20041;-78
2022/05/06 05:40:16;;;;;;;47.53;25.70;;;;;;;8.28;100.00;102369.47;5008245;28;20038;-79
2022/05/06 05:42:42;;;;;;;44.40;26.02;;;;;;;8.41;100.00;102367.78;5018564;28;20602;-80
2022/05/06 05:48:19;;;;;;;59.40;27.60;;;;;;;8.69;100.00;102374.00;5010917;28;20041;-79
2022/05/06 05:50:47;;;;;;;50.35;27.00;;;;;;;8.76;100.00;102375.31;5003570;28;20103;-80
2022/05/06 05:53:15;;;;;;;54.88;27.33;;;;;;;8.70;100.00;102349.50;5019404;28;20025;-78
2022/05/06 05:55:42;;;;;;;48.25;26.75;;;;;;;8.72;100.00;102366.81;5031367;28;20025;-77
2022/05/06 05:58:11;;;;;;;55.47;28.13;;;;;;;8.90;100.00;102366.59;5028059;28;20033;-76
2022/05/06 06:00:37;;;;;;;56.78;27.00;;;;;;;9.07;100.00;102373.38;5010203;28;20050;-76
2022/05/06 06:03:03;;;;;;;48.10;25.95;;;;;;;9.04;100.00;102374.44;5009750;28;20133;-78
2022/05/06 06:05:34;;;;;;;50.90;27.95;;;;;;;9.07;100.00;102371.59;5017456;28;20041;-79
2022/05/06 06:08:01;;;;;;;52.95;27.90;;;;;;;9.30;100.00;102375.38;5030723;28;20029;-77
2022/05/06 06:10:28;;;;;;;54.13;27.38;;;;;;;9.24;100.00;102367.06;5029278;28;20483;-76
2022/05/06 06:12:56;;;;;;;56.42;27.52;;;;;;;9.28;100.00;102365.94;5027917;28;20072;-77
2022/05/06 06:15:22;;;;;;;50.83;26.45;;;;;;;9.50;100.00;102376.72;5029896;28;20037;-77
2022/05/06 06:17:48;;;;;;;55.35;26.65;;;;;;;9.72;100.00;102370.91;5010537;28;20401;-77
2022/05/06 06:20:14;;;;;;;51.17;26.77;;;;;;;9.89;100.00;102363.72;5029822;28;20029;-76
2022/05/06 06:22:44;;;;;;;54.08;26.50;;;;;;;10.05;100.00;102363.53;5025117;28;20035;-78
2022/05/06 06:25:12;;;;;;;53.92;26.08;;;;;;;10.07;100.00;102365.09;5028891;28;20037;-77
2022/05/06 06:27:39;;;;;;;47.75;26.02;;;;;;;10.07;100.00;102369.50;5017535;28;20055;-79
2022/05/06 06:30:09;;;;;;;49.65;25.83;;;;;;;10.20;100.00;102377.38;5014720;28;20048;-78
2022/05/06 06:32:35;;;;;;;46.15;25.80;;;;;;;10.33;100.00;102363.34;5005521;28;20870;-78
2022/05/06 06:35:03;;;;;;;48.08;24.92;;;;;;;10.49;100.00;102378.03;5027412;28;20034;-79
2022/05/06 06:37:38;;;;;;;46.15;24.25;;;;;;;10.63;100.00;102383.16;5015987;28;20036;-78
2022/05/06 06:40:06;;;;;;;48.05;26.15;;;;;;;10.81;100.00;102374.94;5017522;28;20095;-78
2022/05/06 06:42:31;;;;;;;50.53;25.80;;;;;;;10.94;100.00;102381.00;5001654;28;20037;-77
2022/05/06 06:45:17;;;;;;;48.05;25.45;;;;;;;10.96;100.00;102365.97;5015522;28;20064;-78
2022/05/06 06:48:05;;;;;;;46.85;25.95;;;;;;;10.96;100.00;102373.84;5022046;28;20038;-79
2022/05/06 06:50:42;;;;;;;47.40;26.00;;;;;;;11.13;100.00;102380.53;5011635;28;20564;-79
2022/05/06 06:53:23;;;;;;;48.22;26.40;;;;;;;11.22;100.00;102379.03;5029831;28;20026;-77
2022/05/06 06:55:49;;;;;;;48.55;27.98;;;;;;;11.26;100.00;102372.59;4999027;28;20048;-77
2022/05/06 06:58:15;;;;;;;49.50;26.42;;;;;;;11.43;100.00;102372.25;5014055;28;20045;-77
2022/05/06 07:00:44;;;;;;;47.67;25.58;;;;;;;11.63;100.00;102370.75;5028698;28;20834;-78
2022/05/06 07:03:11;;;;;;;48.20;26.08;;;;;;;11.84;100.00;102381.47;5015444;28;20128;-79
2022/05/06 07:05:36;;;;;;;48.88;26.38;;;;;;;11.99;100.00;102389.19;5014288;28;20089;-78
2022/05/06 07:13:32;;;;;;;45.67;25.45;;;;;;;12.30;100.00;102395.59;5025518;28;20033;-77
2022/05/06 07:15:58;;;;;;;47.20;25.83;;;;;;;12.43;99.82;102398.09;5015723;28;20056;-77
2022/05/06 07:18:24;;;;;;;41.75;24.60;;;;;;;12.58;100.00;102398.72;5028797;28;20132;-77
2022/05/06 07:20:50;;;;;;;44.00;25.27;;;;;;;12.63;98.91;102400.03;5028023;28;20475;-78
2022/05/06 07:23:15;;;;;;;44.55;25.55;;;;;;;12.51;99.46;102394.88;5026689;28;20032;-76
2022/05/06 07:25:41;;;;;;;50.05;26.67;;;;;;;12.59;98.21;102390.72;5024653;28;20046;-77
2022/05/06 07:28:08;;;;;;;47.50;25.98;;;;;;;12.72;98.67;102401.13;5015189;28;20032;-77
2022/05/06 07:30:34;;;;;;;46.33;25.77;;;;;;;12.82;97.73;102403.88;5027372;28;20045;-78
2022/05/06 07:33:00;;;;;;;38.13;23.42;;;;;;;12.98;97.65;102399.06;4999815;28;20092;-77
2022/05/06 07:35:25;;;;;;;40.08;24.38;;;;;;;13.18;96.84;102396.63;5031774;28;20029;-77
2022/05/06 07:37:51;;;;;;;44.42;24.35;;;;;;;13.23;94.64;102402.38;5027682;28;20391;-77
2022/05/06 07:40:17;;;;;;;43.10;24.48;;;;;;;13.26;93.91;102375.81;5023563;28;20379;-77
2022/05/06 07:42:45;;;;;;;44.63;24.45;;;;;;;13.41;93.54;102394.81;5031843;28;20117;-77
2022/05/06 07:45:11;;;;;;;40.95;24.38;;;;;;;13.52;93.46;102392.13;5032071;28;20045;-77
2022/05/06 07:47:38;;;;;;;45.65;24.48;;;;;;;13.56;91.81;102390.09;5011571;28;20029;-79
2022/05/06 07:50:04;;;;;;;40.60;24.25;;;;;;;13.46;93.80;102392.63;5016801;28;20041;-78
2022/05/06 07:52:31;;;;;;;39.55;23.25;;;;;;;13.68;92.64;102396.16;5021619;28;20101;-80
2022/05/06 07:54:56;;;;;;;44.67;24.58;;;;;;;13.74;90.75;102393.84;5014878;28;20055;-79
2022/05/06 07:57:22;;;;;;;40.00;22.02;;;;;;;13.74;90.52;102385.94;5015804;28;20417;-79
2022/05/06 07:59:48;;;;;;;38.55;22.95;;;;;;;13.91;89.79;102395.09;5027427;28;20037;-78
2022/05/06 08:04:59;;;;;;;39.20;22.48;;;;;;;14.34;88.65;102393.28;5017960;28;20037;-77
2022/05/06 08:07:25;;;;;;;45.38;24.15;;;;;;;14.46;87.69;102394.84;5016274;28;20164;-78
2022/05/06 08:09:50;;;;;;;38.47;23.17;;;;;;;14.54;87.58;102388.91;5013006;28;20076;-78
2022/05/06 08:12:16;;;;;;;36.97;22.52;;;;;;;14.49;87.84;102385.84;5013401;28;20041;-78
2022/05/06 08:14:43;;;;;;;34.53;21.33;;;;;;;14.36;88.01;102393.97;5026930;28;20041;-77
2022/05/06 08:17:08;;;;;;;40.97;22.10;;;;;;;14.47;87.45;102390.41;5041892;28;20040;-76
2022/05/06 08:19:34;;;;;;;34.88;20.55;;;;;;;14.68;85.02;102380.66;5030288;28;20034;-77
2022/05/06 08:22:00;;;;;;;33.35;20.40;;;;;;;14.77;85.12;102390.44;5001704;28;20096;-76
2022/05/06 08:24:27;;;;;;;34.78;20.02;;;;;;;15.11;84.45;102386.63;5030726;28;20128;-78
2022/05/06 08:26:52;;;;;;;40.60;20.15;;;;;;;15.24;82.94;102399.56;5011950;28;20042;-76
2022/05/06 08:29:18;;;;;;;33.97;20.50;;;;;;;15.14;84.09;102389.84;5015113;28;20550;-78
2022/05/06 08:31:43;;;;;;;33.22;20.77;;;;;;;15.28;82.51;102385.94;5030136;28;20030;-78
2022/05/06 08:34:11;;;;;;;35.50;21.13;;;;;;;15.29;80.87;102384.97;5020027;28;20037;-77
2022/05/06 08:36:39;;;;;;;30.77;19.33;;;;;;;15.41;82.22;102385.69;5003441;28;20029;-77
2022/05/06 08:39:06;;;;;;;38.60;20.42;;;;;;;15.49;82.44;102387.66;4996948;28;20038;-76
2022/05/06 08:41:32;;;;;;;29.15;17.77;;;;;;;15.67;81.41;102393.91;5030622;28;20410;-78
2022/05/06 08:50:50;;;;;;;28.77;16.48;;;;;;;15.82;80.31;102399.63;5028896;28;20037;-76
2022/05/06 08:52:21;;;;;;;31.90;19.35;;;;;;;15.89;78.72;102390.16;5010808;28;20076;-78
2022/05/06 08:54:47;;;;;;;31.10;19.30;;;;;;;15.99;77.89;102395.41;5022383;28;20037;-77
2022/05/06 08:57:12;;;;;;;29.10;17.25;;;;;;;16.29;76.39;102382.94;5022128;28;20541;-77
2022/05/06 08:59:38;;;;;;;24.58;16.10;;;;;;;16.14;77.35;102383.44;5022689;28;20059;-79
2022/05/06 09:02:04;;;;;;;27.77;15.95;;;;;;;16.35;75.19;102393.81;5016913;28;20033;-79
2022/05/06 09:04:30;;;;;;;22.65;15.80;;;;;;;16.57;76.85;102383.81;5024027;28;20030;-79
2022/05/06 09:07:21;;;;;;;25.23;15.52;;;;;;;16.59;73.76;102394.28;5027223;28;20549;-79
2022/05/06 09:10:09;;;;;;;27.25;15.10;;;;;;;16.78;74.25;102396.00;5020268;28;20099;-80
2022/05/06 09:12:46;;;;;;;28.73;14.82;;;;;;;16.93;72.52;102391.91;5023430;28;20040;-77
2022/05/06 09:18:02;;;;;;;24.38;14.02;;;;;;;17.32;72.17;102394.31;5025899;28;20066;-78
2022/05/06 09:20:29;;;;;;;20.95;13.48;;;;;;;17.26;69.45;102397.56;5006944;28;20037;-78
2022/05/06 09:22:56;;;;;;;20.85;13.18;;;;;;;17.02;71.46;102391.03;5021590;28;20561;-77
2022/05/06 09:25:37;;;;;;;21.45;13.30;;;;;;;17.35;71.45;102391.38;5018319;28;20033;-80
2022/05/06 09:28:04;;;;;;;21.65;12.70;;;;;;;17.50;69.99;102397.81;5025959;28;20049;-76
2022/05/06 09:30:30;;;;;;;19.50;12.68;;;;;;;17.52;68.84;102392.34;5031949;28;20549;-77
2022/05/06 09:32:56;;;;;;;20.27;13.18;;;;;;;17.50;68.33;102384.53;5027467;28;20069;-77
2022/05/06 09:35:26;;;;;;;16.48;11.15;;;;;;;17.83;69.27;102392.75;5015642;28;20076;-78
2022/05/06 09:37:52;;;;;;;24.45;12.45;;;;;;;18.06;68.68;102382.53;5025867;28;20105;-77
2022/05/06 09:40:20;;;;;;;19.65;11.88;;;;;;;17.83;65.46;102387.44;5033329;28;20131;-77
2022/05/06 09:43:06;;;;;;;25.55;12.32;;;;;;;17.70;66.80;102387.03;5015970;28;20033;-77
2022/05/06 09:45:39;;;;;;;22.85;11.23;;;;;;;18.02;70.60;102385.63;5022332;28;20054;-76
2022/05/06 09:48:09;;;;;;;22.13;11.15;;;;;;;18.55;65.37;102392.56;5015303;28;20026;-78
2022/05/06 09:50:39;;;;;;;19.08;11.57;;;;;;;18.62;62.87;102388.28;5035337;28;20037;-78
2022/05/06 09:53:07;;;;;;;18.02;11.88;;;;;;;18.60;63.95;102386.78;5019488;28;20171;-78
2022/05/06 09:55:36;;;;;;;21.63;12.45;;;;;;;18.41;63.98;102394.00;5037400;28;20029;-78
2022/05/06 09:58:02;;;;;;;22.73;12.23;;;;;;;18.75;64.98;102390.50;5003394;28;20052;-79
2022/05/06 10:00:28;;;;;;;21.52;12.00;;;;;;;18.48;66.55;102383.59;5023114;28;20588;-77
2022/05/06 10:02:55;;;;;;;19.27;12.10;;;;;;;18.62;64.55;102377.66;5027752;28;20548;-79
2022/05/06 10:05:22;;;;;;;22.40;12.13;;;;;;;18.59;63.20;102380.66;5009270;28;20044;-80
2022/05/06 10:07:49;;;;;;;20.42;11.70;;;;;;;18.06;63.47;102374.56;5047085;28;20037;-79
2022/05/06 10:10:21;;;;;;;22.17;11.80;;;;;;;17.77;63.88;102381.94;5034161;28;20025;-76
2022/05/06 10:12:52;;;;;;;20.00;12.30;;;;;;;17.62;67.16;102376.34;5037312;28;20053;-77
2022/05/06 10:15:20;;;;;;;19.20;11.88;;;;;;;18.11;66.19;102363.47;5040731;28;20083;-79
2022/05/06 10:17:59;;;;;;;21.20;12.00;;;;;;;18.59;64.15;102370.03;5027338;28;20038;-76
2022/05/06 10:20:38;;;;;;;17.80;11.50;;;;;;;19.16;63.45;102371.22;5030137;28;20412;-77
2022/05/06 10:23:09;;;;;;;17.90;12.55;;;;;;;18.91;62.14;102373.81;5024579;28;20045;-78
2022/05/06 10:25:45;;;;;;;18.65;12.68;;;;;;;19.32;63.88;102375.72;5033239;28;20025;-78
2022/05/06 10:34:11;;;;;;;18.92;11.05;;;;;;;19.57;59.49;102364.09;5021050;28;20041;-78
2022/05/06 10:36:44;;;;;;;17.70;11.35;;;;;;;19.55;58.51;102358.09;5005378;28;20140;-77
2022/05/06 10:39:19;;;;;;;17.63;10.40;;;;;;;19.80;60.87;102366.09;5011688;28;20126;-78
2022/05/06 10:42:18;;;;;;;19.08;10.98;;;;;;;20.01;58.08;102371.72;5027724;28;20064;-78
2022/05/06 10:44:50;;;;;;;18.67;11.82;;;;;;;19.70;56.59;102350.25;5024854;28;20029;-78
2022/05/06 10:47:16;;;;;;;15.90;10.15;;;;;;;19.86;57.93;102356.59;5029547;28;20270;-80
2022/05/06 10:49:43;;;;;;;21.45;10.50;;;;;;;20.06;57.41;102351.72;5019086;28;20041;-79
2022/05/06 10:52:15;;;;;;;18.38;9.18;;;;;;;20.46;58.54;102353.44;5010760;28;20124;-79
2022/05/06 10:54:48;;;;;;;17.52;10.02;;;;;;;20.51;56.37;102336.91;5022798;28;20480;-80
2022/05/06 10:57:16;;;;;;;17.13;11.00;;;;;;;19.91;56.66;102332.94;5012398;28;20029;-78
2022/05/06 10:59:51;;;;;;;18.27;9.32;;;;;;;19.73;60.62;102346.47;5012143;28;20042;-78
2022/05/06 11:02:23;;;;;;;14.05;9.45;;;;;;;19.43;58.78;102344.28;5012089;28;20048;-83
2022/05/06 11:04:53;;;;;;;15.73;10.23;;;;;;;19.63;57.87;102325.31;5012775;28;20104;-78
2022/05/06 11:07:19;;;;;;;14.15;9.98;;;;;;;19.99;57.72;102327.63;5021922;28;20056;-80
2022/05/06 11:09:48;;;;;;;19.00;9.43;;;;;;;20.38;58.48;102325.00;5023983;28;20128;-80
2022/05/06 11:12:44;;;;;;;11.43;7.95;;;;;;;20.92;55.06;102331.41;5027928;28;20507;-79
2022/05/06 11:15:13;;;;;;;17.75;9.32;;;;;;;20.60;54.17;102331.41;5029156;28;20033;-78
2022/05/06 11:17:39;;;;;;;21.13;9.48;;;;;;;20.78;55.79;102325.81;5028848;28;20600;-79
2022/05/06 11:20:22;;;;;;;18.10;9.68;;;;;;;21.24;56.26;102327.66;5026234;28;20033;-78
2022/05/06 11:23:01;;;;;;;20.73;10.98;;;;;;;20.80;54.27;102323.78;5019397;28;20030;-79
2022/05/06 11:25:33;;;;;;;16.77;9.77;;;;;;;20.99;57.72;102324.34;5029359;28;20065;-77
2022/05/06 11:28:01;;;;;;;19.63;10.63;;;;;;;21.22;52.40;102328.84;5024568;28;20041;-79
2022/05/06 11:30:29;;;;;;;14.38;8.43;;;;;;;20.67;51.98;102320.06;5010046;28;20099;-78
2022/05/06 11:32:58;;;;;;;14.75;7.60;;;;;;;20.43;53.11;102321.78;5009743;28;20143;-77
2022/05/06 11:35:39;;;;;;;10.93;6.90;;;;;;;20.72;53.00;102315.84;5035606;28;20029;-80
2022/05/06 11:38:05;;;;;;;11.85;6.40;;;;;;;21.11;53.30;102322.09;5023076;28;20037;-79
2022/05/06 11:40:37;;;;;;;8.77;6.60;;;;;;;21.70;51.92;102318.78;5030849;28;20031;-80
2022/05/06 11:43:05;;;;;;;14.50;7.47;;;;;;;22.00;47.98;102306.28;5024789;28;20038;-79
2022/05/06 11:48:18;;;;;;;12.98;6.03;;;;;;;20.88;49.92;102308.75;5033850;28;20037;-78
2022/05/06 11:50:45;;;;;;;11.43;5.40;;;;;;;21.26;50.73;102296.28;5013355;28;20128;-79
2022/05/06 11:53:13;;;;;;;11.63;6.53;;;;;;;21.54;49.20;102301.09;5043100;28;20042;-79
2022/05/06 11:55:43;;;;;;;12.73;7.45;;;;;;;21.41;49.79;102296.31;5029013;28;20108;-79